Time;durP1;ratioP1;P1;durP2;ratioP2;P2;SDS_P1;SDS_P2;PMS_P1;PMS_P2;Temp;Humidity;BMP_temperature;BMP_pressure;BME280_temperature;BME280_humidity;BME280_pressure;Samples;Min_cycle;Max_cycle;Signal;HPM_P1;HPM_P2
2023/05/25 00:01:47;;;;;;;2.87;1.73;;;17.60;54.30;16.70;96741.00;;;;6063929;23;20206;-78
2023/05/25 00:04:15;;;;;;;3.43;1.90;;;17.50;54.30;16.70;96749.00;;;;6040547;23;20191;-78
2023/05/25 00:06:46;;;;;;;3.80;1.70;;;17.60;54.40;16.70;96739.00;;;;6063430;23;20176;-78
2023/05/25 00:09:15;;;;;;;5.00;1.93;;;17.50;54.50;16.70;96744.00;;;;6064714;23;20171;-78
2023/05/25 00:11:42;;;;;;;3.30;2.17;;;17.60;54.70;16.70;96743.00;;;;6064174;23;20176;-78
2023/05/25 00:14:09;;;;;;;2.37;1.63;;;17.50;54.70;16.70;96747.00;;;;6063013;23;20692;-78
2023/05/25 00:16:39;;;;;;;4.00;1.90;;;17.50;54.60;16.70;96748.00;;;;6065448;23;20251;-78
2023/05/25 00:19:09;;;;;;;2.37;1.70;;;17.60;54.80;16.60;96745.00;;;;6066746;23;20634;-78
2023/05/25 00:21:37;;;;;;;2.23;1.90;;;17.60;54.90;16.70;96757.00;;;;6067052;23;20199;-78
2023/05/25 00:24:05;;;;;;;3.43;2.27;;;17.50;54.90;16.70;96758.00;;;;6067108;23;20199;-78
2023/05/25 00:26:34;;;;;;;3.67;2.00;;;17.50;54.90;16.70;96757.00;;;;6041798;23;20749;-78
2023/05/25 00:29:01;;;;;;;2.77;1.57;;;17.50;55.00;16.70;96756.00;;;;6066849;23;20575;-78
2023/05/25 00:31:31;;;;;;;6.13;2.20;;;17.50;55.00;16.70;96751.00;;;;6067150;23;20263;-78
2023/05/25 00:34:01;;;;;;;3.03;1.80;;;17.60;55.00;16.70;96746.00;;;;6067186;23;20192;-78
2023/05/25 00:36:28;;;;;;;4.03;1.83;;;17.50;55.10;16.60;96751.00;;;;6041856;23;20176;-78
2023/05/25 00:38:56;;;;;;;2.57;1.77;;;17.60;55.20;16.60;96743.00;;;;6017229;23;20634;-78
2023/05/25 00:41:26;;;;;;;3.67;2.03;;;17.50;55.20;16.60;96754.00;;;;6065798;23;20518;-78
2023/05/25 00:43:54;;;;;;;4.07;2.00;;;17.60;55.40;16.70;96752.00;;;;6066977;23;20192;-78
2023/05/25 00:46:23;;;;;;;4.87;2.37;;;17.60;55.60;16.70;96752.00;;;;6066586;23;20252;-78
2023/05/25 00:48:55;;;;;;;3.10;2.10;;;17.50;55.60;16.70;96756.00;;;;6066682;23;20191;-77
2023/05/25 00:51:22;;;;;;;2.87;1.83;;;17.60;55.70;16.70;96758.00;;;;6066495;23;20206;-78
2023/05/25 00:53:50;;;;;;;2.97;1.97;;;17.50;55.60;16.70;96755.00;;;;6064592;23;20200;-77
2023/05/25 00:56:22;;;;;;;2.80;1.83;;;17.50;55.60;16.70;96755.00;;;;6066506;23;20239;-78
2023/05/25 00:58:57;;;;;;;3.13;1.90;;;17.50;55.70;16.70;96753.00;;;;6038979;23;20176;-78
2023/05/25 01:01:27;;;;;;;4.83;2.47;;;17.50;55.80;16.70;96757.00;;;;6064790;23;20239;-78
2023/05/25 01:03:59;;;;;;;3.30;2.03;;;17.60;56.00;16.80;96756.00;;;;6064619;23;20259;-78
2023/05/25 01:06:32;;;;;;;5.47;2.13;;;17.60;56.10;16.80;96746.00;;;;6038834;23;20251;-77
2023/05/25 01:09:05;;;;;;;5.67;1.80;;;17.60;56.60;16.80;96745.00;;;;6065522;23;20175;-77
2023/05/25 01:11:36;;;;;;;4.67;2.63;;;17.60;56.20;16.80;96749.00;;;;6042304;23;20156;-78
2023/05/25 01:14:06;;;;;;;3.10;1.70;;;17.60;56.00;16.80;96743.00;;;;6019715;23;20203;-78
2023/05/25 01:16:33;;;;;;;3.00;1.90;;;17.60;56.10;16.80;96742.00;;;;6068710;23;20267;-78
2023/05/25 01:19:01;;;;;;;3.80;2.13;;;17.60;56.20;16.80;96733.00;;;;6068562;23;20203;-78
2023/05/25 01:21:36;;;;;;;5.57;2.27;;;17.60;56.30;16.80;96739.00;;;;6042767;23;20183;-77
2023/05/25 01:24:12;;;;;;;3.07;1.90;;;17.60;56.30;16.80;96744.00;;;;6045434;23;20224;-78
2023/05/25 01:26:48;;;;;;;6.83;2.80;;;17.60;56.30;16.80;96739.00;;;;6067901;23;20198;-77
2023/05/25 01:29:18;;;;;;;3.33;2.00;;;17.70;56.40;16.80;96734.00;;;;6068444;23;20517;-78
2023/05/25 01:31:47;;;;;;;3.17;1.87;;;17.70;56.30;16.80;96739.00;;;;6068634;23;20175;-78
2023/05/25 01:34:16;;;;;;;2.97;1.77;;;17.70;56.40;16.80;96734.00;;;;6068467;23;20587;-78
2023/05/25 01:36:45;;;;;;;4.27;2.03;;;17.70;56.50;16.80;96734.00;;;;6068425;23;20172;-78
2023/05/25 01:39:13;;;;;;;4.03;2.07;;;17.70;56.50;16.80;96745.00;;;;6067028;23;20179;-78
2023/05/25 01:41:40;;;;;;;5.10;2.33;;;17.70;56.50;16.80;96742.00;;;;6066135;23;20172;-78
2023/05/25 01:44:08;;;;;;;3.53;1.97;;;17.70;56.60;16.80;96734.00;;;;6042876;23;20196;-78
2023/05/25 01:46:39;;;;;;;3.57;2.20;;;17.70;56.80;16.80;96742.00;;;;6066200;23;20517;-78
2023/05/25 01:49:21;;;;;;;2.40;2.20;;;17.70;56.90;16.80;96746.00;;;;6067045;23;20188;-78
2023/05/25 01:52:04;;;;;;;3.50;2.27;;;17.70;56.90;16.80;96749.00;;;;6067163;23;20176;-78
2023/05/25 01:54:40;;;;;;;3.90;2.17;;;17.70;57.00;16.80;96748.00;;;;6066181;23;20216;-78
2023/05/25 01:57:13;;;;;;;2.20;2.00;;;17.70;57.20;16.80;96768.00;;;;6065436;23;20653;-78
2023/05/25 01:59:45;;;;;;;4.47;2.47;;;17.70;57.20;16.80;96763.00;;;;6066776;23;20240;-77
2023/05/25 02:02:15;;;;;;;4.10;2.50;;;17.70;57.30;16.80;96764.00;;;;6066705;23;20531;-78
2023/05/25 02:04:44;;;;;;;4.13;2.47;;;17.70;57.30;16.80;96761.00;;;;6068548;23;20266;-78
2023/05/25 02:07:13;;;;;;;3.77;2.60;;;17.70;57.40;16.80;96760.00;;;;6065467;23;20172;-78
2023/05/25 02:09:40;;;;;;;3.83;2.57;;;17.70;57.50;16.80;96760.00;;;;6066058;23;20206;-78
2023/05/25 02:12:08;;;;;;;3.27;2.40;;;17.70;57.60;16.80;96755.00;;;;6068091;23;20254;-78
2023/05/25 02:14:35;;;;;;;4.70;2.90;;;17.70;57.80;16.80;96754.00;;;;6066086;23;20705;-78
2023/05/25 02:17:03;;;;;;;3.83;2.60;;;17.70;57.80;16.80;96751.00;;;;6041914;23;20512;-78
2023/05/25 02:19:30;;;;;;;4.83;2.70;;;17.70;57.90;16.80;96744.00;;;;6065579;23;20247;-78
2023/05/25 02:21:58;;;;;;;4.20;3.10;;;17.70;58.00;16.80;96755.00;;;;6066872;23;20254;-78
2023/05/25 02:24:26;;;;;;;4.97;2.80;;;17.70;58.00;16.80;96756.00;;;;6068017;23;20303;-78
2023/05/25 02:26:54;;;;;;;4.63;2.57;;;17.70;58.20;16.80;96744.00;;;;6041447;23;20243;-78
2023/05/25 02:29:21;;;;;;;3.33;2.50;;;17.70;58.20;16.80;96742.00;;;;6067719;23;20178;-78
2023/05/25 02:31:48;;;;;;;3.63;2.70;;;17.70;58.40;16.80;96733.00;;;;6042424;23;20211;-78
2023/05/25 02:34:16;;;;;;;3.73;2.50;;;17.70;58.50;16.90;96734.00;;;;6043366;23;20745;-78
2023/05/25 02:36:44;;;;;;;4.03;2.67;;;17.70;58.50;16.90;96745.00;;;;6067591;23;20176;-78
2023/05/25 02:39:11;;;;;;;4.50;2.53;;;17.70;58.60;16.90;96744.00;;;;6042085;23;20299;-78
2023/05/25 02:41:40;;;;;;;4.37;3.13;;;17.70;58.60;16.90;96735.00;;;;6067001;23;20255;-77
2023/05/25 02:44:08;;;;;;;5.57;2.93;;;17.70;58.80;16.90;96734.00;;;;6040886;23;20208;-77
2023/05/25 02:46:35;;;;;;;3.67;2.80;;;17.70;58.90;16.90;96732.00;;;;6066488;23;20250;-77
2023/05/25 02:49:02;;;;;;;4.10;2.43;;;17.70;59.00;16.90;96730.00;;;;6040653;23;20172;-77
2023/05/25 02:51:31;;;;;;;4.50;2.73;;;17.80;59.10;16.90;96725.00;;;;6040382;23;20981;-77
2023/05/25 02:53:58;;;;;;;3.20;2.57;;;17.80;59.20;16.90;96733.00;;;;6040152;23;20200;-77
2023/05/25 02:56:26;;;;;;;4.43;3.33;;;17.80;59.30;17.00;96739.00;;;;6066180;23;20204;-77
2023/05/25 02:58:55;;;;;;;4.67;3.07;;;17.80;59.30;17.00;96741.00;;;;6040792;23;20176;-78
2023/05/25 03:01:24;;;;;;;3.27;2.93;;;17.80;59.40;17.00;96743.00;;;;6069541;23;20172;-78
2023/05/25 03:03:51;;;;;;;3.57;3.27;;;17.80;59.40;17.00;96740.00;;;;6069239;23;20287;-78
2023/05/25 03:06:20;;;;;;;5.43;3.70;;;17.80;59.40;17.00;96746.00;;;;6068362;23;20176;-78
2023/05/25 03:08:47;;;;;;;4.40;2.93;;;17.80;59.60;17.00;96751.00;;;;6067049;23;20269;-78
2023/05/25 03:11:15;;;;;;;4.90;3.20;;;17.90;59.80;17.00;96751.00;;;;6067516;23;20172;-78
2023/05/25 03:13:42;;;;;;;4.03;3.33;;;17.90;59.90;17.10;96748.00;;;;6067405;23;20227;-78
2023/05/25 03:16:11;;;;;;;4.70;3.37;;;17.90;59.90;17.10;96758.00;;;;6068391;23;20256;-78
2023/05/25 03:18:38;;;;;;;5.60;3.30;;;17.90;60.20;17.10;96760.00;;;;6046589;23;20168;-78
2023/05/25 03:21:06;;;;;;;6.40;3.20;;;17.90;60.20;17.10;96753.00;;;;6068438;23;20255;-78
2023/05/25 03:23:33;;;;;;;3.23;2.93;;;17.90;60.30;17.10;96755.00;;;;6042629;23;20369;-77
2023/05/25 03:26:00;;;;;;;4.17;3.30;;;17.90;60.50;17.10;96748.00;;;;6042564;23;20167;-78
2023/05/25 03:28:28;;;;;;;4.73;3.47;;;18.00;60.70;17.20;96751.00;;;;6042497;23;20255;-78
2023/05/25 03:30:56;;;;;;;5.53;3.60;;;18.00;60.80;17.20;96749.00;;;;6066643;23;20515;-78
2023/05/25 03:33:25;;;;;;;3.73;3.10;;;18.00;60.90;17.20;96748.00;;;;6043024;23;20201;-78
2023/05/25 03:35:53;;;;;;;4.50;3.60;;;18.00;61.10;17.20;96752.00;;;;6042609;23;20264;-78
2023/05/25 03:38:20;;;;;;;5.13;3.37;;;18.00;61.00;17.20;96756.00;;;;6067347;23;20255;-78
2023/05/25 03:40:47;;;;;;;5.37;3.17;;;18.10;61.20;17.30;96759.00;;;;6066067;23;20247;-78
2023/05/25 03:43:14;;;;;;;5.63;3.80;;;18.10;61.40;17.30;96750.00;;;;6066701;23;20271;-79
2023/05/25 03:45:42;;;;;;;5.80;3.77;;;18.10;61.40;17.30;96751.00;;;;6040323;23;20188;-77
2023/05/25 03:48:09;;;;;;;6.37;3.27;;;18.10;61.40;17.30;96746.00;;;;6064614;23;20711;-78
2023/05/25 03:50:39;;;;;;;5.43;4.03;;;18.10;61.40;17.30;96746.00;;;;6064905;23;20179;-78
2023/05/25 03:53:07;;;;;;;4.07;3.30;;;18.10;61.60;17.30;96746.00;;;;6065029;23;20192;-78
2023/05/25 03:55:34;;;;;;;4.23;3.70;;;18.10;61.60;17.30;96745.00;;;;6040497;23;20203;-78
2023/05/25 03:58:02;;;;;;;4.90;3.30;;;18.10;61.70;17.30;96746.00;;;;6040103;23;20176;-78
2023/05/25 04:00:29;;;;;;;7.70;3.47;;;18.10;61.80;17.30;96753.00;;;;6041698;23;20246;-78
2023/05/25 04:02:57;;;;;;;5.27;3.70;;;18.10;62.00;17.30;96761.00;;;;6042875;23;20200;-78
2023/05/25 04:05:25;;;;;;;3.97;3.67;;;18.10;62.10;17.30;96766.00;;;;6042341;23;20182;-78
2023/05/25 04:07:54;;;;;;;3.90;3.50;;;18.10;62.30;17.30;96761.00;;;;6041811;23;20176;-78
2023/05/25 04:10:21;;;;;;;5.00;3.90;;;18.10;62.60;17.30;96760.00;;;;6041813;23;20242;-78
2023/05/25 04:12:48;;;;;;;4.63;3.73;;;18.10;62.70;17.30;96758.00;;;;6066988;23;20255;-78
2023/05/25 04:15:16;;;;;;;4.43;3.97;;;18.10;62.90;17.40;96762.00;;;;6067601;23;20210;-78
2023/05/25 04:17:43;;;;;;;5.13;4.40;;;18.10;63.00;17.40;96769.00;;;;6068784;23;20262;-79
2023/05/25 04:20:11;;;;;;;5.30;4.00;;;18.20;63.20;17.40;96765.00;;;;6043399;23;20179;-78
2023/05/25 04:22:38;;;;;;;5.47;4.30;;;18.20;63.30;17.50;96760.00;;;;6068342;23;20235;-80
2023/05/25 04:25:09;;;;;;;5.40;4.03;;;18.20;63.40;17.50;96761.00;;;;6068553;23;20597;-79
2023/05/25 04:27:36;;;;;;;4.47;4.00;;;18.30;63.50;17.50;96762.00;;;;6068556;23;20164;-80
2023/05/25 04:30:04;;;;;;;5.03;3.60;;;18.30;63.40;17.50;96761.00;;;;6069137;23;20258;-80
2023/05/25 04:32:35;;;;;;;4.40;3.90;;;18.30;63.50;17.60;96770.00;;;;6067561;23;20702;-80
2023/05/25 04:35:04;;;;;;;4.97;3.83;;;18.30;63.50;17.60;96773.00;;;;6044014;23;20270;-79
2023/05/25 04:37:32;;;;;;;5.50;3.70;;;18.40;63.40;17.70;96766.00;;;;6067528;23;20721;-79
2023/05/25 04:40:00;;;;;;;5.77;4.20;;;18.50;63.30;17.70;96784.00;;;;6042397;23;20172;-78
2023/05/25 04:42:28;;;;;;;4.30;3.90;;;18.50;63.20;17.70;96783.00;;;;6067541;23;20176;-79
2023/05/25 04:44:57;;;;;;;4.13;3.47;;;18.50;63.10;17.70;96780.00;;;;6068070;23;20954;-80
2023/05/25 04:47:25;;;;;;;4.80;3.30;;;18.50;62.90;17.80;96781.00;;;;6067855;23;20178;-80
2023/05/25 04:49:53;;;;;;;3.50;3.20;;;18.60;62.90;17.80;96782.00;;;;6068572;23;20247;-81
2023/05/25 04:52:20;;;;;;;3.53;3.23;;;18.60;62.80;17.80;96786.00;;;;6068287;23;20717;-80
2023/05/25 04:54:49;;;;;;;4.53;3.60;;;18.60;63.60;17.90;96782.00;;;;6068158;23;20251;-80
2023/05/25 04:57:17;;;;;;;4.00;3.33;;;18.60;62.70;17.90;96783.00;;;;6044855;23;20183;-81
2023/05/25 04:59:45;;;;;;;3.63;3.33;;;18.70;62.50;17.90;96782.00;;;;6070307;23;20173;-80
2023/05/25 05:02:13;;;;;;;3.30;3.00;;;18.70;62.50;18.00;96790.00;;;;6044689;23;20168;-80
2023/05/25 05:04:41;;;;;;;3.57;3.20;;;18.70;62.40;18.00;96788.00;;;;6070566;23;20275;-81
2023/05/25 05:07:08;;;;;;;3.70;3.30;;;18.80;62.30;18.00;96783.00;;;;6045634;23;20218;-80
2023/05/25 05:09:37;;;;;;;4.87;3.27;;;18.80;62.20;18.10;96785.00;;;;6069680;23;20243;-79
2023/05/25 05:12:07;;;;;;;5.70;3.17;;;18.90;62.10;18.10;96789.00;;;;6069754;23;20229;-80
2023/05/25 05:14:35;;;;;;;3.27;2.97;;;18.90;61.90;18.10;96795.00;;;;6069973;23;20192;-81
2023/05/25 05:17:05;;;;;;;5.13;3.20;;;18.90;61.70;18.10;96798.00;;;;6046254;23;20231;-81
2023/05/25 05:19:33;;;;;;;4.60;2.87;;;18.90;61.50;18.20;96798.00;;;;6045700;23;20258;-80
2023/05/25 05:22:00;;;;;;;4.17;2.80;;;19.00;61.40;18.20;96799.00;;;;6043476;23;20184;-80
2023/05/25 05:24:28;;;;;;;4.30;2.73;;;19.00;61.20;18.20;96802.00;;;;6045902;23;20199;-80
2023/05/25 05:26:55;;;;;;;4.17;3.03;;;19.00;61.10;18.20;96803.00;;;;6069163;23;20521;-79
2023/05/25 05:29:23;;;;;;;6.13;3.20;;;19.00;61.00;18.30;96804.00;;;;6068222;23;20172;-79
2023/05/25 05:31:52;;;;;;;3.47;2.67;;;19.00;61.00;18.30;96804.00;;;;6069213;23;20550;-80
2023/05/25 05:34:21;;;;;;;2.80;2.50;;;19.10;60.90;18.30;96811.00;;;;6069119;23;20223;-80
2023/05/25 05:36:48;;;;;;;4.20;2.93;;;19.10;60.80;18.30;96807.00;;;;6069559;23;20210;-80
2023/05/25 05:39:16;;;;;;;2.93;2.53;;;19.10;60.70;18.40;96813.00;;;;6067642;23;20204;-79
2023/05/25 05:41:44;;;;;;;3.10;2.77;;;19.10;60.40;18.40;96811.00;;;;6068478;23;20168;-80
2023/05/25 05:44:12;;;;;;;4.63;2.90;;;19.10;60.40;18.40;96816.00;;;;6068955;23;20200;-79
2023/05/25 05:46:39;;;;;;;6.87;3.00;;;19.20;60.20;18.40;96814.00;;;;6070065;23;20259;-80
2023/05/25 05:49:07;;;;;;;5.23;2.43;;;19.20;60.20;18.40;96811.00;;;;6068506;23;20176;-80
2023/05/25 05:51:37;;;;;;;3.07;2.70;;;19.20;60.20;18.50;96816.00;;;;6068568;23;20182;-80
2023/05/25 05:54:05;;;;;;;3.10;2.60;;;19.20;60.00;18.50;96816.00;;;;6068670;23;20196;-80
2023/05/25 05:56:32;;;;;;;3.97;2.93;;;19.30;60.00;18.50;96825.00;;;;6070271;23;20184;-81
2023/05/25 05:58:59;;;;;;;3.43;2.43;;;19.30;59.90;18.50;96824.00;;;;6070544;23;20561;-79
2023/05/25 06:01:26;;;;;;;3.80;2.37;;;19.30;59.70;18.60;96818.00;;;;6068011;23;20179;-80
2023/05/25 06:03:54;;;;;;;3.47;2.30;;;19.30;59.60;18.60;96820.00;;;;6070105;23;20709;-79
2023/05/25 06:06:22;;;;;;;3.57;2.30;;;19.30;59.50;18.60;96829.00;;;;6069943;23;20259;-80
2023/05/25 06:08:51;;;;;;;6.00;2.70;;;19.40;59.50;18.60;96837.00;;;;6068749;23;20195;-80
2023/05/25 06:11:18;;;;;;;5.00;2.53;;;19.40;59.60;18.70;96834.00;;;;6069111;23;20200;-80
2023/05/25 06:13:46;;;;;;;3.77;2.33;;;19.40;59.60;18.70;96827.00;;;;6071378;23;20192;-80
2023/05/25 06:16:13;;;;;;;4.07;2.30;;;19.40;59.40;18.70;96832.00;;;;6073174;23;20235;-79
2023/05/25 06:18:40;;;;;;;3.70;2.53;;;19.40;59.30;18.70;96833.00;;;;6070107;23;20180;-80
2023/05/25 06:21:09;;;;;;;3.40;2.20;;;19.50;59.20;18.70;96835.00;;;;6044577;23;20247;-80
2023/05/25 06:23:36;;;;;;;4.10;2.20;;;19.50;59.10;18.80;96838.00;;;;6068606;23;20199;-80
2023/05/25 06:26:06;;;;;;;4.37;2.50;;;19.50;59.10;18.80;96843.00;;;;6069232;23;20239;-79
2023/05/25 06:28:33;;;;;;;4.43;2.47;;;19.60;59.20;18.80;96847.00;;;;6068562;23;20251;-81
2023/05/25 06:31:00;;;;;;;3.20;2.30;;;19.60;59.10;18.90;96848.00;;;;6069653;23;20252;-80
2023/05/25 06:33:27;;;;;;;2.67;2.20;;;19.60;59.60;18.90;96843.00;;;;6068637;23;20586;-81
2023/05/25 06:35:59;;;;;;;4.30;2.70;;;19.60;59.00;18.90;96846.00;;;;6068513;23;20203;-79
2023/05/25 06:38:26;;;;;;;4.60;2.87;;;19.70;58.70;19.00;96862.00;;;;6068734;23;20161;-81
2023/05/25 06:40:54;;;;;;;4.23;2.37;;;19.70;59.20;19.00;96866.00;;;;6069334;23;20175;-79
2023/05/25 06:43:23;;;;;;;3.67;2.50;;;19.70;58.60;19.00;96855.00;;;;6068937;23;20267;-80
2023/05/25 06:45:50;;;;;;;3.17;2.17;;;19.80;58.70;19.10;96848.00;;;;6068197;23;20270;-81
2023/05/25 06:48:17;;;;;;;3.20;2.20;;;19.80;58.60;19.10;96861.00;;;;6069629;23;20251;-81
2023/05/25 06:50:45;;;;;;;3.30;2.07;;;19.80;58.60;19.10;96854.00;;;;6041512;23;20172;-80
2023/05/25 06:53:12;;;;;;;4.17;2.80;;;19.90;58.70;19.20;96852.00;;;;6042504;23;20203;-80
2023/05/25 06:55:40;;;;;;;3.47;2.57;;;19.90;58.80;19.20;96858.00;;;;6021199;23;20182;-80
2023/05/25 06:58:07;;;;;;;3.23;2.47;;;19.90;58.60;19.20;96855.00;;;;6068531;23;20570;-80
2023/05/25 07:00:36;;;;;;;3.27;2.80;;;20.00;58.60;19.30;96862.00;;;;6044583;23;20685;-80
2023/05/25 07:03:03;;;;;;;5.07;2.47;;;20.00;58.80;19.30;96860.00;;;;6069845;23;21925;-80
2023/05/25 07:05:30;;;;;;;4.07;2.80;;;20.00;58.90;19.40;96860.00;;;;6069747;23;20279;-80
2023/05/25 07:07:58;;;;;;;2.57;2.30;;;20.10;58.80;19.40;96865.00;;;;6020411;23;20184;-80
2023/05/25 07:10:25;;;;;;;3.40;2.50;;;20.10;58.80;19.50;96870.00;;;;6045250;23;20236;-80
2023/05/25 07:12:52;;;;;;;3.30;2.77;;;20.20;58.80;19.50;96867.00;;;;6069764;23;20180;-80
2023/05/25 07:15:20;;;;;;;2.83;2.40;;;20.20;58.80;19.60;96864.00;;;;6021765;23;20251;-81
2023/05/25 07:17:49;;;;;;;4.43;2.93;;;20.30;58.90;19.60;96865.00;;;;6069667;23;20183;-81
2023/05/25 07:20:20;;;;;;;5.97;3.00;;;20.30;58.80;19.60;96869.00;;;;6069529;23;20247;-80
2023/05/25 07:22:48;;;;;;;3.60;2.77;;;20.30;58.50;19.60;96868.00;;;;6070105;23;20179;-81
2023/05/25 07:25:16;;;;;;;2.83;2.57;;;20.30;58.50;19.70;96871.00;;;;6059978;23;20200;-79
2023/05/25 07:27:48;;;;;;;3.47;2.90;;;20.40;58.60;19.70;96868.00;;;;6068615;23;20255;-80
2023/05/25 07:30:15;;;;;;;2.87;2.53;;;20.40;58.70;19.70;96862.00;;;;6067106;23;20516;-80
2023/05/25 07:32:43;;;;;;;3.07;2.77;;;20.40;58.60;19.80;96867.00;;;;6043828;23;20187;-80
2023/05/25 07:35:11;;;;;;;3.03;2.27;;;20.50;58.70;19.80;96875.00;;;;6069269;23;20649;-80
2023/05/25 07:37:38;;;;;;;5.03;3.23;;;20.50;59.20;19.80;96871.00;;;;6069264;23;20208;-81
2023/05/25 07:40:09;;;;;;;3.63;2.77;;;20.50;58.50;19.90;96870.00;;;;6069245;23;20255;-79
2023/05/25 07:42:36;;;;;;;3.47;2.50;;;20.60;58.60;19.90;96882.00;;;;6069533;23;20160;-81
2023/05/25 07:45:05;;;;;;;4.00;2.83;;;20.60;58.60;20.00;96878.00;;;;6069730;23;20283;-80
2023/05/25 07:47:32;;;;;;;4.07;2.60;;;20.70;59.30;20.00;96886.00;;;;6069860;23;20255;-81
2023/05/25 07:49:59;;;;;;;2.60;2.40;;;20.70;58.80;20.10;96888.00;;;;6069564;23;20229;-80
2023/05/25 07:52:28;;;;;;;2.93;2.57;;;20.70;58.80;20.10;96884.00;;;;6069907;23;20224;-81
2023/05/25 07:54:55;;;;;;;2.57;2.37;;;20.80;58.90;20.20;96885.00;;;;6071364;23;20228;-80
2023/05/25 07:57:24;;;;;;;3.13;2.57;;;20.80;58.80;20.20;96891.00;;;;6070065;23;20187;-80
2023/05/25 07:59:51;;;;;;;2.90;2.60;;;20.90;59.40;20.20;96887.00;;;;6070471;23;20178;-80
2023/05/25 08:02:19;;;;;;;5.17;3.00;;;20.90;58.80;20.30;96894.00;;;;6070286;23;20206;-80
2023/05/25 08:04:46;;;;;;;3.37;3.00;;;21.00;58.80;20.30;96902.00;;;;6070860;23;20228;-80
2023/05/25 08:07:14;;;;;;;3.77;3.03;;;21.00;58.70;20.40;96901.00;;;;6071331;23;20207;-79
2023/05/25 08:09:42;;;;;;;3.40;3.10;;;21.00;58.60;20.40;96907.00;;;;6070464;23;20252;-81
2023/05/25 08:12:10;;;;;;;4.13;2.67;;;21.10;58.60;20.50;96904.00;;;;6071322;23;20228;-80
2023/05/25 08:14:37;;;;;;;2.97;2.63;;;21.10;58.60;20.50;96909.00;;;;6072805;23;20227;-80
2023/05/25 08:17:04;;;;;;;3.03;2.70;;;21.20;58.70;20.50;96904.00;;;;6070703;23;20190;-80
2023/05/25 08:19:32;;;;;;;4.17;3.00;;;21.20;58.70;20.60;96908.00;;;;6069662;23;20174;-80
2023/05/25 08:21:59;;;;;;;3.70;3.43;;;21.30;58.50;20.60;96907.00;;;;6066653;23;20176;-82
2023/05/25 08:24:27;;;;;;;3.60;3.07;;;21.30;58.50;20.70;96909.00;;;;6064728;23;20206;-81
2023/05/25 08:26:56;;;;;;;4.60;2.70;;;21.30;58.60;20.70;96908.00;;;;6064907;23;20575;-82
2023/05/25 08:29:23;;;;;;;4.47;3.13;;;21.40;58.60;20.80;96918.00;;;;6066502;23;20245;-81
2023/05/25 08:31:51;;;;;;;3.53;3.20;;;21.40;58.60;20.80;96923.00;;;;6067388;23;20203;-81
2023/05/25 08:34:18;;;;;;;4.37;3.50;;;21.40;58.60;20.80;96917.00;;;;6067625;23;20275;-83
2023/05/25 08:36:46;;;;;;;3.90;2.90;;;21.50;58.50;20.90;96918.00;;;;6065364;23;20499;-81
2023/05/25 08:39:13;;;;;;;4.20;3.17;;;21.50;58.40;20.90;96917.00;;;;6067585;23;20251;-82
2023/05/25 08:41:43;;;;;;;6.77;3.57;;;21.50;58.30;20.90;96924.00;;;;6067866;23;20217;-81
2023/05/25 08:44:14;;;;;;;4.00;3.37;;;21.60;58.10;20.90;96920.00;;;;6067247;23;20285;-81
2023/05/25 08:46:42;;;;;;;5.70;3.13;;;21.60;58.10;20.90;96920.00;;;;6067270;23;20178;-80
2023/05/25 08:49:10;;;;;;;3.73;3.03;;;21.60;58.20;21.00;96922.00;;;;6067398;23;20661;-81
2023/05/25 08:51:43;;;;;;;3.23;2.63;;;21.60;58.30;21.00;96918.00;;;;6065736;23;20214;-82
2023/05/25 08:54:13;;;;;;;4.20;2.80;;;21.70;58.30;21.10;96917.00;;;;6067185;23;20201;-80
2023/05/25 08:56:50;;;;;;;3.37;2.80;;;21.70;58.30;21.20;96918.00;;;;6068329;23;20494;-81
2023/05/25 08:59:40;;;;;;;5.23;2.93;;;21.80;58.20;21.20;96924.00;;;;6068396;23;20499;-81
2023/05/25 09:02:22;;;;;;;4.43;3.10;;;21.90;58.20;21.30;96921.00;;;;6067836;23;20211;-81
2023/05/25 09:04:49;;;;;;;5.10;3.00;;;21.90;58.30;21.40;96928.00;;;;6066695;23;20230;-81
2023/05/25 09:07:20;;;;;;;4.17;2.73;;;22.00;58.00;21.50;96932.00;;;;6066759;23;20255;-81
2023/05/25 09:09:48;;;;;;;3.20;2.70;;;22.10;58.10;21.50;96924.00;;;;6067302;23;20172;-80
2023/05/25 09:12:17;;;;;;;5.50;3.30;;;22.10;58.20;21.60;96933.00;;;;6067913;23;20247;-81
2023/05/25 09:14:46;;;;;;;3.57;3.27;;;22.20;58.40;21.70;96931.00;;;;6020232;23;20205;-81
2023/05/25 09:17:15;;;;;;;3.47;2.50;;;22.30;58.20;21.80;96933.00;;;;6070024;23;20176;-80
2023/05/25 09:19:42;;;;;;;3.37;2.40;;;22.40;58.10;21.90;96940.00;;;;6069722;23;20204;-80
2023/05/25 09:22:10;;;;;;;5.47;3.00;;;22.40;57.80;22.00;96937.00;;;;6071325;23;20570;-81
2023/05/25 09:24:40;;;;;;;3.00;2.70;;;22.50;57.70;22.00;96937.00;;;;6068933;23;20251;-80
2023/05/25 09:27:10;;;;;;;6.03;3.00;;;22.60;57.60;22.10;96938.00;;;;6042375;23;20232;-80
2023/05/25 09:29:38;;;;;;;3.53;2.93;;;22.60;57.30;22.10;96937.00;;;;6068200;23;20172;-79
2023/05/25 09:32:08;;;;;;;6.03;3.30;;;22.70;57.40;22.10;96938.00;;;;6069352;23;20185;-81
2023/05/25 09:34:35;;;;;;;3.43;2.80;;;22.70;57.10;22.20;96939.00;;;;6044205;23;20820;-80
2023/05/25 09:37:04;;;;;;;4.73;2.50;;;22.70;57.20;22.20;96941.00;;;;6068680;23;20663;-81
2023/05/25 09:39:31;;;;;;;4.23;3.60;;;22.80;57.20;22.20;96942.00;;;;6069686;23;20243;-80
2023/05/25 09:42:00;;;;;;;3.30;2.80;;;22.80;57.30;22.30;96938.00;;;;6070489;23;20255;-80
2023/05/25 09:44:28;;;;;;;4.10;3.00;;;22.80;57.20;22.40;96949.00;;;;6069305;23;20534;-81
2023/05/25 09:46:56;;;;;;;6.10;3.00;;;22.90;56.80;22.40;96949.00;;;;6068501;23;20211;-81
2023/05/25 09:49:26;;;;;;;3.50;3.20;;;22.90;56.70;22.50;96950.00;;;;6068061;23;20498;-81
2023/05/25 09:51:54;;;;;;;3.80;3.20;;;23.00;56.70;22.50;96949.00;;;;6042874;23;20176;-80
2023/05/25 09:54:23;;;;;;;3.57;3.00;;;23.10;56.80;22.60;96951.00;;;;6068275;23;20269;-81
2023/05/25 09:56:50;;;;;;;3.93;3.13;;;23.10;57.20;22.70;96947.00;;;;6043718;23;20224;-82
2023/05/25 09:59:18;;;;;;;3.47;3.10;;;23.20;56.60;22.70;96953.00;;;;6019965;23;20539;-81
2023/05/25 10:01:50;;;;;;;3.37;2.90;;;23.30;56.50;22.80;96949.00;;;;6042965;23;20251;-81
2023/05/25 10:04:18;;;;;;;4.40;2.90;;;23.30;56.60;23.00;96950.00;;;;6045622;23;20270;-80
2023/05/25 10:06:49;;;;;;;5.07;2.87;;;23.40;56.70;23.10;96944.00;;;;6069408;23;20251;-80
2023/05/25 10:09:19;;;;;;;2.93;2.73;;;23.50;56.50;23.20;96944.00;;;;6044983;23;20207;-81
2023/05/25 10:11:51;;;;;;;9.13;3.37;;;23.60;56.40;23.30;96945.00;;;;6044219;23;20514;-81
2023/05/25 10:14:26;;;;;;;5.63;3.03;;;23.70;56.20;23.40;96947.00;;;;6070348;23;20256;-80
2023/05/25 10:16:56;;;;;;;5.90;3.80;;;23.80;56.30;23.50;96950.00;;;;6069309;23;20170;-80
2023/05/25 10:19:33;;;;;;;7.73;3.13;;;24.00;56.60;23.60;96959.00;;;;6069495;23;20168;-80
2023/05/25 10:22:10;;;;;;;4.40;2.53;;;24.10;56.10;23.70;96956.00;;;;6019646;23;20178;-80
2023/05/25 10:24:52;;;;;;;3.30;2.97;;;24.20;56.10;23.70;96946.00;;;;6027604;23;20201;-82
2023/05/25 10:27:24;;;;;;;2.93;2.73;;;24.30;55.70;23.80;96953.00;;;;6069869;23;20213;-81
2023/05/25 10:29:52;;;;;;;3.00;2.80;;;24.40;55.70;23.90;96953.00;;;;6068929;23;20564;-80
2023/05/25 10:32:20;;;;;;;4.23;3.30;;;24.40;55.70;24.00;96960.00;;;;6069793;23;20172;-81
2023/05/25 10:34:51;;;;;;;5.37;3.20;;;24.50;55.40;24.00;96957.00;;;;6043360;23;20201;-79
2023/05/25 10:37:20;;;;;;;3.60;2.77;;;24.60;55.20;24.10;96952.00;;;;6070035;23;20235;-81
2023/05/25 10:39:50;;;;;;;2.93;2.73;;;24.60;55.10;24.10;96957.00;;;;6068046;23;20645;-79
2023/05/25 10:42:19;;;;;;;3.37;2.67;;;24.70;55.00;24.20;96960.00;;;;6069365;23;20250;-80
2023/05/25 10:44:47;;;;;;;4.53;3.00;;;24.70;55.10;24.20;96963.00;;;;6069509;23;20283;-80
2023/05/25 10:47:16;;;;;;;4.03;2.93;;;24.70;54.90;24.20;96965.00;;;;6068991;23;20251;-80
2023/05/25 10:49:56;;;;;;;3.13;2.83;;;24.80;55.00;24.30;96957.00;;;;6091650;23;20183;-80
2023/05/25 10:52:29;;;;;;;4.27;2.83;;;24.80;54.80;24.30;96961.00;;;;6070095;23;20500;-82
2023/05/25 10:54:57;;;;;;;6.70;3.33;;;24.80;54.90;24.30;96966.00;;;;6069428;23;20203;-79
2023/05/25 10:57:26;;;;;;;4.17;2.67;;;24.80;55.00;24.30;96962.00;;;;6068160;23;20264;-80
2023/05/25 11:00:00;;;;;;;4.33;3.03;;;24.90;54.80;24.40;96967.00;;;;6068935;23;20633;-80
2023/05/25 11:02:32;;;;;;;5.90;3.17;;;24.90;54.70;24.40;96963.00;;;;6067685;23;20253;-80